Time;durP1;ratioP1;P1;durP2;ratioP2;P2;SDS_P1;SDS_P2;PMS_P1;PMS_P2;Temp;Humidity;BMP_temperature;BMP_pressure;BME280_temperature;BME280_humidity;BME280_pressure;Samples;Min_cycle;Max_cycle;Signal;HPM_P1;HPM_P2
2023/05/08 00:00:23;;;;;;;;;;;;;;;;;;;;;
2023/05/08 00:02:51;;;;;;;22.70;19.73;;;;;;;14.47;100.00;101859.09;5016697;28;20148;-88
2023/05/08 00:05:21;;;;;;;21.80;19.48;;;;;;;14.47;100.00;101864.56;4998118;28;20033;-88
2023/05/08 00:07:47;;;;;;;22.65;19.95;;;;;;;14.47;100.00;101866.47;4999144;28;20400;-88
2023/05/08 00:10:15;;;;;;;21.47;19.17;;;;;;;14.49;100.00;101878.00;4997602;28;20108;-88
2023/05/08 00:12:48;;;;;;;23.48;20.20;;;;;;;14.50;100.00;101882.41;4998112;28;20088;-89
2023/05/08 00:15:13;;;;;;;24.15;20.10;;;;;;;14.47;100.00;101880.94;4998271;28;20029;-88
2023/05/08 00:17:39;;;;;;;20.67;18.43;;;;;;;14.46;100.00;101878.44;4997924;28;20037;-88
2023/05/08 00:20:08;;;;;;;22.10;19.50;;;;;;;14.44;100.00;101875.91;5014458;28;20034;-89
2023/05/08 00:22:34;;;;;;;20.73;18.33;;;;;;;14.46;100.00;101862.03;4998456;28;20068;-88
2023/05/08 00:25:04;;;;;;;22.07;19.77;;;;;;;14.43;100.00;101855.13;5014076;28;20489;-88
2023/05/08 00:27:32;;;;;;;22.38;19.60;;;;;;;14.43;100.00;101863.31;5015228;28;20029;-88
2023/05/08 00:30:01;;;;;;;25.30;19.77;;;;;;;14.45;100.00;101861.19;5014147;28;20038;-89
2023/05/08 00:32:28;;;;;;;22.95;19.17;;;;;;;14.43;100.00;101865.22;5015151;28;20029;-89
2023/05/08 00:34:54;;;;;;;21.50;18.80;;;;;;;14.46;100.00;101872.97;5014114;28;20033;-89
2023/05/08 00:37:24;;;;;;;24.00;18.77;;;;;;;14.45;100.00;101874.00;4997790;28;20030;-88
2023/05/08 00:39:52;;;;;;;22.00;19.60;;;;;;;14.42;100.00;101872.53;5013121;28;20037;-89
2023/05/08 00:42:20;;;;;;;23.08;19.23;;;;;;;14.40;100.00;101869.19;5015189;28;20036;-89
2023/05/08 00:44:46;;;;;;;21.80;19.50;;;;;;;14.39;100.00;101870.25;5014033;28;20025;-88
2023/05/08 00:47:14;;;;;;;25.05;20.65;;;;;;;14.38;100.00;101874.06;5014811;28;20057;-88
2023/05/08 00:49:41;;;;;;;21.70;19.40;;;;;;;14.36;100.00;101859.75;4998101;28;20109;-88
2023/05/08 00:52:07;;;;;;;24.63;19.65;;;;;;;14.35;100.00;101861.66;4997055;28;20153;-88
2023/05/08 00:54:35;;;;;;;23.13;19.93;;;;;;;14.33;100.00;101868.38;4997285;28;20112;-88
2023/05/08 00:57:05;;;;;;;22.90;19.67;;;;;;;14.31;100.00;101862.31;4997542;28;20029;-88
2023/05/08 00:59:34;;;;;;;23.25;20.17;;;;;;;14.26;100.00;101854.78;4997136;28;20030;-88
2023/05/08 01:02:00;;;;;;;25.40;20.42;;;;;;;14.30;100.00;101849.72;4997368;28;20099;-88
2023/05/08 01:04:29;;;;;;;22.75;20.20;;;;;;;14.28;100.00;101852.66;4996915;28;20029;-88
2023/05/08 01:07:00;;;;;;;25.27;20.80;;;;;;;14.27;100.00;101852.88;5014904;28;20022;-88
2023/05/08 01:09:28;;;;;;;27.17;20.70;;;;;;;14.30;100.00;101852.44;5013013;28;20026;-88
2023/05/08 01:12:18;;;;;;;22.83;19.98;;;;;;;14.32;100.00;101855.78;5012800;28;20026;-88
2023/05/08 01:15:18;;;;;;;22.48;19.25;;;;;;;14.35;100.00;101861.66;5014660;28;20034;-88
2023/05/08 01:17:56;;;;;;;23.10;19.73;;;;;;;14.36;100.00;101867.94;5013586;28;20022;-88
2023/05/08 01:20:42;;;;;;;27.00;20.80;;;;;;;14.34;100.00;101856.41;5013429;28;20120;-88
2023/05/08 01:23:38;;;;;;;24.45;20.23;;;;;;;14.35;100.00;101860.81;5009782;28;20046;-88
2023/05/08 01:26:36;;;;;;;22.20;19.17;;;;;;;14.34;100.00;101849.06;4993882;28;20120;-88
2023/05/08 01:29:39;;;;;;;22.17;18.30;;;;;;;14.34;100.00;101856.41;5009943;28;20032;-88
2023/05/08 01:32:14;;;;;;;23.17;18.58;;;;;;;14.34;100.00;101856.41;4993261;28;20089;-88
2023/05/08 01:34:50;;;;;;;34.77;19.87;;;;;;;14.29;100.00;101853.47;4994542;28;20038;-88
2023/05/08 01:37:26;;;;;;;23.67;19.40;;;;;;;14.28;100.00;101862.75;5009884;28;20113;-88
2023/05/08 01:40:16;;;;;;;24.48;19.50;;;;;;;14.30;100.00;101866.09;4993120;28;20492;-88
2023/05/08 01:42:55;;;;;;;22.70;18.20;;;;;;;14.31;100.00;101859.59;4994466;28;20029;-88
2023/05/08 01:45:28;;;;;;;23.02;18.70;;;;;;;14.29;100.00;101851.63;4993216;28;20050;-88
2023/05/08 01:48:09;;;;;;;22.57;18.80;;;;;;;14.29;100.00;101851.63;4993298;28;20066;-88
2023/05/08 01:50:44;;;;;;;23.65;19.98;;;;;;;14.25;100.00;101849.53;5009827;28;20030;-88
2023/05/08 01:53:29;;;;;;;22.98;18.77;;;;;;;14.25;100.00;101853.09;5009696;28;20442;-88
2023/05/08 01:56:09;;;;;;;22.83;19.08;;;;;;;14.19;100.00;101856.69;5009639;28;20034;-88
2023/05/08 01:58:38;;;;;;;24.27;19.30;;;;;;;14.19;100.00;101856.69;4994742;28;20026;-88
2023/05/08 02:01:08;;;;;;;24.17;19.50;;;;;;;14.17;100.00;101850.59;5009196;28;20030;-88
2023/05/08 02:03:38;;;;;;;24.95;19.65;;;;;;;14.19;100.00;101857.50;5009138;28;20367;-89
2023/05/08 02:06:05;;;;;;;23.92;19.80;;;;;;;14.17;100.00;101856.91;5009629;28;20462;-89
2023/05/08 02:08:33;;;;;;;26.35;20.00;;;;;;;14.17;100.00;101851.44;5009273;28;20038;-88
2023/05/08 02:11:00;;;;;;;22.60;19.63;;;;;;;14.16;100.00;101859.84;4992351;28;20018;-89
2023/05/08 02:13:27;;;;;;;22.43;19.53;;;;;;;14.14;100.00;101860.06;4993772;28;20470;-88
2023/05/08 02:15:58;;;;;;;24.65;20.75;;;;;;;14.15;100.00;101872.63;4993153;28;20401;-88
2023/05/08 02:18:26;;;;;;;21.38;19.08;;;;;;;14.18;100.00;101868.66;4993225;28;20512;-88
2023/05/08 02:20:53;;;;;;;21.88;19.42;;;;;;;14.18;100.00;101869.47;4993112;28;20027;-88
2023/05/08 02:23:21;;;;;;;23.13;20.00;;;;;;;14.20;100.00;101872.84;5012615;28;20038;-89
2023/05/08 02:25:51;;;;;;;26.10;19.77;;;;;;;14.15;100.00;101869.91;4999026;28;20088;-88
2023/05/08 02:28:18;;;;;;;23.42;18.70;;;;;;;14.14;100.00;101873.72;5015713;28;20053;-87
2023/05/08 02:30:45;;;;;;;22.52;19.92;;;;;;;14.15;100.00;101878.09;5000279;28;20458;-88
2023/05/08 02:33:12;;;;;;;26.42;20.02;;;;;;;14.15;100.00;101872.63;5015812;28;20030;-88
2023/05/08 02:35:49;;;;;;;28.48;19.95;;;;;;;14.19;100.00;101878.53;4999018;28;20050;-88
2023/05/08 02:38:20;;;;;;;23.53;19.27;;;;;;;14.17;100.00;101875.16;4999124;28;20093;-88
2023/05/08 02:40:57;;;;;;;23.63;19.40;;;;;;;14.19;100.00;101879.34;5015704;28;20054;-88
2023/05/08 02:43:27;;;;;;;24.50;19.50;;;;;;;14.17;100.00;101873.28;5000383;28;20124;-89
2023/05/08 02:46:14;;;;;;;24.48;19.50;;;;;;;14.21;100.00;101888.16;5015528;28;20062;-88
2023/05/08 02:48:53;;;;;;;24.15;19.08;;;;;;;14.19;100.00;101882.06;5015107;28;20196;-88
2023/05/08 02:51:50;;;;;;;25.37;18.80;;;;;;;14.21;100.00;101874.50;5019154;28;20366;-88
2023/05/08 02:54:27;;;;;;;24.73;19.17;;;;;;;14.21;100.00;101876.41;5019276;28;20427;-89
2023/05/08 02:57:00;;;;;;;22.23;18.95;;;;;;;14.18;100.00;101866.75;5002098;28;20037;-88
2023/05/08 02:59:38;;;;;;;24.05;19.42;;;;;;;14.17;100.00;101865.09;5018918;28;20544;-88
2023/05/08 03:02:29;;;;;;;24.67;20.20;;;;;;;14.17;100.00;101873.28;5018369;28;20401;-88
2023/05/08 03:05:14;;;;;;;25.73;20.40;;;;;;;14.15;100.00;101864.44;5018623;28;20124;-88
2023/05/08 03:07:46;;;;;;;24.60;19.80;;;;;;;14.12;100.00;101864.88;5019256;28;20030;-88
2023/05/08 03:10:15;;;;;;;24.48;20.00;;;;;;;14.11;100.00;101870.56;5018702;28;20030;-88
2023/05/08 03:12:45;;;;;;;24.80;20.05;;;;;;;14.10;100.00;101869.72;5020025;28;20129;-88
2023/05/08 03:15:31;;;;;;;24.90;19.83;;;;;;;14.12;100.00;101864.88;5018525;28;20029;-88
2023/05/08 03:18:08;;;;;;;24.90;20.00;;;;;;;14.07;100.00;101866.56;5001984;28;20061;-88
2023/05/08 03:20:40;;;;;;;25.30;19.52;;;;;;;14.07;100.00;101869.31;5018569;28;20125;-88
2023/05/08 03:23:13;;;;;;;25.27;20.75;;;;;;;14.04;100.00;101868.69;5020027;28;20025;-88
2023/05/08 03:25:42;;;;;;;26.58;20.20;;;;;;;14.02;100.00;101867.22;5018708;28;20529;-88
2023/05/08 03:28:12;;;;;;;25.73;20.30;;;;;;;14.00;100.00;101869.34;5018480;28;20041;-88
2023/05/08 03:30:40;;;;;;;24.97;20.37;;;;;;;13.96;100.00;101862.63;5018324;28;20401;-88
2023/05/08 03:33:11;;;;;;;24.88;20.17;;;;;;;13.93;100.00;101866.59;5019457;28;20048;-88
2023/05/08 03:35:41;;;;;;;26.50;20.05;;;;;;;13.89;100.00;101862.63;5015163;28;20065;-88
2023/05/08 03:38:10;;;;;;;26.05;20.42;;;;;;;13.82;100.00;101857.19;5015102;28;20026;-88
2023/05/08 03:40:37;;;;;;;27.73;20.45;;;;;;;13.82;100.00;101857.19;5014642;28;20557;-88
2023/05/08 03:43:06;;;;;;;25.93;20.30;;;;;;;13.80;100.00;101862.03;5016166;28;20045;-88
2023/05/08 03:45:41;;;;;;;27.50;20.40;;;;;;;13.78;100.00;101858.66;5015100;28;20030;-88
2023/05/08 03:48:10;;;;;;;26.58;20.27;;;;;;;13.76;100.00;101854.47;5011652;28;20108;-88
2023/05/08 03:50:45;;;;;;;26.55;20.08;;;;;;;13.72;100.00;101859.50;4996682;28;20030;-88
2023/05/08 03:53:10;;;;;;;24.35;20.67;;;;;;;13.71;100.00;101862.44;4996655;28;20034;-88
2023/05/08 03:55:36;;;;;;;27.63;20.50;;;;;;;13.72;100.00;101862.25;4995332;28;20433;-88
2023/05/08 03:58:21;;;;;;;27.50;20.97;;;;;;;13.73;100.00;101860.34;4996350;28;20038;-88
2023/05/08 04:01:00;;;;;;;25.67;20.00;;;;;;;13.70;100.00;101858.91;4996623;28;20080;-88
2023/05/08 04:03:43;;;;;;;25.17;21.35;;;;;;;13.68;100.00;101860.97;4996411;28;20034;-88
2023/05/08 04:06:25;;;;;;;25.35;20.05;;;;;;;13.66;100.00;101865.81;5011664;28;20027;-88
2023/05/08 04:09:16;;;;;;;24.53;19.80;;;;;;;13.68;100.00;101874.63;4995485;28;20129;-88
2023/05/08 04:12:07;;;;;;;26.52;21.00;;;;;;;13.69;100.00;101868.13;4994640;28;20030;-88
2023/05/08 04:14:46;;;;;;;27.98;20.45;;;;;;;13.68;100.00;101869.16;4996200;28;20104;-88
2023/05/08 04:17:16;;;;;;;28.40;20.65;;;;;;;13.71;100.00;101870.63;4995229;28;20027;-88
2023/05/08 04:19:48;;;;;;;32.35;22.20;;;;;;;13.68;100.00;101877.34;4995173;28;20034;-88
2023/05/08 04:22:15;;;;;;;29.27;22.03;;;;;;;13.67;100.00;101875.66;4995647;28;20065;-87
2023/05/08 04:24:50;;;;;;;30.98;22.08;;;;;;;13.67;100.00;101875.66;5011059;28;20466;-88
2023/05/08 04:27:20;;;;;;;32.97;21.88;;;;;;;13.71;100.00;101882.38;4994548;28;20045;-88
2023/05/08 04:29:46;;;;;;;31.17;23.08;;;;;;;13.73;100.00;101872.09;4978751;28;20154;-88
2023/05/08 04:32:12;;;;;;;32.03;23.17;;;;;;;13.76;100.00;101876.28;4993666;28;20135;-88
2023/05/08 04:34:38;;;;;;;30.88;22.38;;;;;;;13.78;100.00;101877.75;4995695;28;20038;-88
2023/05/08 04:37:20;;;;;;;33.63;22.88;;;;;;;13.82;100.00;101886.38;4994140;28;20550;-88
2023/05/08 04:39:49;;;;;;;29.70;21.97;;;;;;;13.85;100.00;101875.03;5010037;28;20041;-88
2023/05/08 04:42:18;;;;;;;28.63;21.52;;;;;;;13.86;100.00;101890.31;5010664;28;20123;-88
2023/05/08 04:44:46;;;;;;;32.50;23.02;;;;;;;13.90;100.00;101894.31;4995278;28;20031;-88
2023/05/08 04:47:19;;;;;;;30.67;22.23;;;;;;;13.93;100.00;101891.16;4995418;28;20042;-88
2023/05/08 04:49:44;;;;;;;26.95;20.75;;;;;;;13.98;100.00;101879.59;5013267;28;20041;-88
2023/05/08 04:52:12;;;;;;;30.07;21.43;;;;;;;14.07;100.00;101885.66;5013864;28;20381;-88
2023/05/08 04:54:42;;;;;;;26.95;21.20;;;;;;;14.10;100.00;101896.16;5015057;28;20124;-88
2023/05/08 04:57:10;;;;;;;24.77;19.63;;;;;;;14.13;100.00;101901.19;4981841;28;20060;-88
2023/05/08 04:59:36;;;;;;;29.23;21.37;;;;;;;14.17;100.00;101899.72;5014893;28;20030;-88
2023/05/08 05:02:01;;;;;;;26.85;21.35;;;;;;;14.23;100.00;101900.75;5014716;28;20034;-88
2023/05/08 05:04:36;;;;;;;26.50;20.83;;;;;;;14.22;100.00;101902.66;4996893;28;20082;-88
2023/05/08 05:07:05;;;;;;;26.70;20.83;;;;;;;14.28;100.00;101909.16;4998060;28;20112;-88
2023/05/08 05:09:37;;;;;;;27.73;21.45;;;;;;;14.33;100.00;101907.44;5013325;28;20386;-86
2023/05/08 05:12:04;;;;;;;27.37;20.90;;;;;;;14.38;100.00;101915.84;4981461;28;20536;-81
2023/05/08 05:14:30;;;;;;;26.52;21.20;;;;;;;14.40;100.00;101918.34;5013198;28;20034;-83
2023/05/08 05:16:58;;;;;;;26.63;20.97;;;;;;;14.45;100.00;101921.25;4997043;28;20046;-83
2023/05/08 05:19:24;;;;;;;27.67;21.48;;;;;;;14.48;100.00;101920.00;5014649;28;20481;-83
2023/05/08 05:21:49;;;;;;;29.20;21.52;;;;;;;14.52;100.00;101922.06;5014494;28;20026;-82
2023/05/08 05:24:15;;;;;;;26.03;21.43;;;;;;;14.56;100.00;101934.25;5014458;28;20462;-82
2023/05/08 05:26:40;;;;;;;36.80;21.33;;;;;;;14.61;100.00;101936.38;5014324;28;20038;-82
2023/05/08 05:29:06;;;;;;;26.75;21.13;;;;;;;14.65;100.00;101932.16;4996637;28;20025;-82
2023/05/08 05:31:31;;;;;;;29.23;20.70;;;;;;;14.71;100.00;101935.91;5013398;28;20038;-82
2023/05/08 05:33:57;;;;;;;24.63;20.03;;;;;;;14.73;100.00;101933.78;5013088;28;20061;-82
2023/05/08 05:36:22;;;;;;;26.48;20.42;;;;;;;14.86;100.00;101933.72;5013923;28;20034;-82
2023/05/08 05:38:47;;;;;;;26.50;21.47;;;;;;;14.93;100.00;101936.44;5013823;28;20034;-82
2023/05/08 05:41:13;;;;;;;29.60;21.63;;;;;;;15.01;100.00;101940.81;4996766;28;20041;-82
2023/05/08 05:43:38;;;;;;;25.97;21.23;;;;;;;15.05;100.00;101944.78;5013535;28;20057;-83
2023/05/08 05:46:05;;;;;;;26.70;21.67;;;;;;;15.07;100.00;101938.06;4995973;28;20030;-82
2023/05/08 05:48:30;;;;;;;27.42;21.77;;;;;;;15.18;100.00;101943.88;4980153;28;20164;-82
2023/05/08 05:50:56;;;;;;;29.13;22.70;;;;;;;15.24;100.00;101940.25;4996265;28;20532;-82
2023/05/08 05:53:24;;;;;;;31.00;23.20;;;;;;;15.29;100.00;101937.69;4996394;28;20038;-83
2023/05/08 05:55:50;;;;;;;29.80;22.98;;;;;;;15.36;100.00;101943.97;4996709;28;20116;-83
2023/05/08 05:58:15;;;;;;;27.63;21.70;;;;;;;15.43;100.00;101936.56;4995574;28;20113;-83
2023/05/08 06:00:44;;;;;;;29.50;23.40;;;;;;;15.50;100.00;101954.81;4996051;28;20108;-83
2023/05/08 06:03:10;;;;;;;30.77;24.30;;;;;;;15.50;100.00;101949.34;5013453;28;20116;-82
2023/05/08 06:05:36;;;;;;;31.97;24.03;;;;;;;15.57;100.00;101937.28;4995930;28;20121;-82
2023/05/08 06:08:02;;;;;;;27.90;23.10;;;;;;;15.65;100.00;101943.53;5012242;28;20018;-82
2023/05/08 06:10:27;;;;;;;34.45;26.13;;;;;;;15.60;100.00;101944.22;5011458;28;20034;-82
2023/05/08 06:12:53;;;;;;;33.07;26.33;;;;;;;15.51;100.00;101948.28;4995492;28;20034;-82
2023/05/08 06:15:19;;;;;;;33.63;24.85;;;;;;;15.54;100.00;101939.63;4995632;28;20401;-82
2023/05/08 06:17:44;;;;;;;37.97;26.47;;;;;;;15.56;100.00;101941.09;5012339;28;20056;-82
2023/05/08 06:20:11;;;;;;;35.90;26.30;;;;;;;15.54;100.00;101945.94;5013345;28;20405;-82
2023/05/08 06:22:38;;;;;;;36.53;27.00;;;;;;;15.54;100.00;101945.94;5013178;28;20385;-82
2023/05/08 06:25:05;;;;;;;39.95;27.25;;;;;;;15.57;100.00;101950.13;4995980;28;20030;-82
2023/05/08 06:27:31;;;;;;;39.22;27.33;;;;;;;15.64;100.00;101950.91;4995685;28;20049;-83
2023/05/08 06:29:57;;;;;;;35.75;27.02;;;;;;;15.67;100.00;101941.44;4995786;28;20124;-83
2023/05/08 06:32:22;;;;;;;36.33;27.67;;;;;;;15.74;100.00;101945.78;4979513;28;20095;-87
2023/05/08 06:34:48;;;;;;;36.53;27.87;;;;;;;15.70;100.00;101951.94;4995609;28;20428;-86
2023/05/08 06:37:17;;;;;;;36.33;28.33;;;;;;;15.72;100.00;101942.44;4995884;28;20033;-86
2023/05/08 06:39:45;;;;;;;40.40;30.10;;;;;;;15.89;100.00;101950.13;5011841;28;20034;-86
2023/05/08 06:42:11;;;;;;;38.00;28.02;;;;;;;16.03;100.00;101942.63;5011603;28;20044;-86
2023/05/08 06:44:36;;;;;;;38.77;29.03;;;;;;;16.12;100.00;101947.59;5011887;28;20033;-86
2023/05/08 06:47:07;;;;;;;46.08;30.23;;;;;;;16.22;100.00;101954.44;5011555;28;20036;-87
2023/05/08 06:49:32;;;;;;;38.40;28.57;;;;;;;16.30;100.00;101959.63;4995699;28;20037;-86
2023/05/08 06:52:00;;;;;;;42.05;29.73;;;;;;;16.26;100.00;101959.22;5011573;28;20492;-86
2023/05/08 06:54:28;;;;;;;38.93;30.10;;;;;;;16.16;100.00;101958.09;4996024;28;20121;-86
2023/05/08 06:56:54;;;;;;;44.47;29.90;;;;;;;16.19;100.00;101963.94;4995076;28;20022;-87
2023/05/08 06:59:22;;;;;;;41.90;31.05;;;;;;;16.18;100.00;101962.28;5011648;28;20036;-87
2023/05/08 07:01:50;;;;;;;45.30;30.97;;;;;;;16.18;100.00;101977.84;4995870;28;20054;-87
2023/05/08 07:04:21;;;;;;;41.15;31.52;;;;;;;16.19;100.00;101979.53;5012906;28;20500;-87
2023/05/08 07:06:47;;;;;;;44.28;31.50;;;;;;;16.25;100.00;101976.72;4995976;28;20503;-87
2023/05/08 07:09:15;;;;;;;43.03;31.50;;;;;;;16.20;100.00;101976.56;5011617;28;20117;-87
2023/05/08 07:11:41;;;;;;;44.83;32.97;;;;;;;16.05;100.00;101970.63;4998964;28;20034;-86
2023/05/08 07:14:16;;;;;;;46.10;31.63;;;;;;;16.06;100.00;101975.00;5016915;28;20032;-87
2023/05/08 07:16:44;;;;;;;42.97;30.70;;;;;;;16.08;100.00;101979.22;4999519;28;20339;-87
2023/05/08 07:19:10;;;;;;;41.70;30.63;;;;;;;16.14;100.00;101972.81;5015164;28;20034;-87
2023/05/08 07:21:36;;;;;;;40.78;30.60;;;;;;;16.23;100.00;101978.03;4999081;28;20116;-86
2023/05/08 07:24:01;;;;;;;41.47;31.13;;;;;;;16.17;100.00;101967.97;5016503;28;20057;-87
2023/05/08 07:26:29;;;;;;;41.03;30.08;;;;;;;16.19;100.00;101971.31;5015506;28;20557;-86
2023/05/08 07:29:04;;;;;;;40.03;29.88;;;;;;;16.19;100.00;101974.88;4998759;28;20432;-87
2023/05/08 07:31:32;;;;;;;39.10;29.57;;;;;;;16.27;100.00;101973.78;4999254;28;20045;-87
2023/05/08 07:34:02;;;;;;;38.85;28.50;;;;;;;16.42;100.00;101974.22;5015503;28;20497;-87
2023/05/08 07:36:33;;;;;;;36.72;27.95;;;;;;;16.54;100.00;101968.00;4982383;28;20045;-87
2023/05/08 07:39:03;;;;;;;36.05;26.83;;;;;;;16.64;100.00;101971.06;5016420;28;20415;-87
2023/05/08 07:41:39;;;;;;;35.10;27.05;;;;;;;16.70;100.00;101972.88;5015947;28;20122;-86
2023/05/08 07:44:08;;;;;;;33.87;25.80;;;;;;;16.89;100.00;101967.38;4997676;28;20145;-87
2023/05/08 07:46:33;;;;;;;37.15;26.73;;;;;;;17.10;100.00;101968.81;5015230;28;20091;-87
2023/05/08 07:49:02;;;;;;;35.05;26.05;;;;;;;17.25;100.00;101958.25;5014571;28;20042;-87
2023/05/08 07:51:28;;;;;;;34.00;25.63;;;;;;;17.47;100.00;101969.53;4998523;28;20033;-87
2023/05/08 07:53:54;;;;;;;32.80;25.23;;;;;;;17.84;100.00;101968.53;4998627;28;20417;-87
2023/05/08 07:56:21;;;;;;;31.77;25.33;;;;;;;18.10;100.00;101967.28;4998282;28;20033;-88
2023/05/08 07:58:47;;;;;;;33.10;24.35;;;;;;;18.41;100.00;101966.06;5015552;28;20160;-87
2023/05/08 08:01:12;;;;;;;32.00;24.50;;;;;;;18.71;100.00;101962.28;5015457;28;20112;-87
2023/05/08 08:03:38;;;;;;;32.10;24.20;;;;;;;18.88;100.00;101970.66;5014177;28;20026;-87
2023/05/08 08:06:08;;;;;;;30.13;22.97;;;;;;;19.00;99.79;101962.38;5014538;28;20030;-87
2023/05/08 08:08:39;;;;;;;27.65;21.65;;;;;;;19.15;98.45;101967.31;5015638;28;20030;-87
2023/05/08 08:11:05;;;;;;;29.27;23.33;;;;;;;19.18;96.15;101977.00;4981816;28;20131;-87
2023/05/08 08:13:36;;;;;;;30.13;22.85;;;;;;;19.21;96.51;101971.00;5014214;28;20481;-87
2023/05/08 08:16:05;;;;;;;28.75;22.50;;;;;;;19.30;96.14;101968.69;4997828;28;20393;-87
2023/05/08 08:18:39;;;;;;;27.10;23.48;;;;;;;19.37;95.27;101972.09;4997919;28;20049;-87
2023/05/08 08:21:07;;;;;;;26.10;22.52;;;;;;;19.49;93.92;101964.63;5014041;28;20037;-87
2023/05/08 08:23:33;;;;;;;27.70;22.17;;;;;;;19.53;92.30;101962.22;5014378;28;20033;-87
2023/05/08 08:26:09;;;;;;;28.40;22.05;;;;;;;19.63;92.91;101966.00;5015492;28;20030;-87
2023/05/08 08:28:39;;;;;;;27.75;22.75;;;;;;;19.71;92.04;101969.38;4997941;28;20026;-87
2023/05/08 08:31:10;;;;;;;27.75;22.75;;;;;;;19.61;92.39;101956.31;5014750;28;20454;-87
2023/05/08 08:33:35;;;;;;;23.45;20.05;;;;;;;19.64;89.60;101964.06;4997882;28;20470;-87
2023/05/08 08:36:01;;;;;;;25.27;20.27;;;;;;;19.61;90.70;101956.31;4998109;28;20037;-87
2023/05/08 08:38:29;;;;;;;23.67;21.10;;;;;;;19.67;90.42;101959.97;4997488;28;20512;-87
2023/05/08 08:40:55;;;;;;;23.35;20.10;;;;;;;19.73;88.32;101959.81;5014431;28;20045;-87
2023/05/08 08:43:30;;;;;;;23.60;20.70;;;;;;;19.84;88.41;101963.56;4997433;28;20030;-87
2023/05/08 08:45:58;;;;;;;25.90;21.38;;;;;;;19.82;86.95;101960.25;5015106;28;20371;-87
2023/05/08 08:48:29;;;;;;;26.95;21.55;;;;;;;20.07;88.07;101957.06;5012950;28;20474;-87
2023/05/08 08:51:07;;;;;;;25.13;21.77;;;;;;;20.40;86.18;101960.00;5014835;28;20109;-87
2023/05/08 08:53:43;;;;;;;25.98;21.25;;;;;;;20.64;86.83;101961.44;4997253;28;20053;-87
2023/05/08 08:56:11;;;;;;;29.23;20.17;;;;;;;20.65;84.21;101960.34;5014868;28;20037;-87
2023/05/08 08:59:03;;;;;;;27.95;20.70;;;;;;;20.63;87.87;101961.69;5013531;28;20029;-87
2023/05/08 09:01:32;;;;;;;26.52;21.80;;;;;;;20.61;83.79;101953.69;4981877;28;20038;-87
2023/05/08 09:04:04;;;;;;;25.98;21.60;;;;;;;20.53;84.61;101959.63;5013797;28;20104;-87
2023/05/08 09:06:30;;;;;;;28.15;22.88;;;;;;;20.41;84.20;101965.25;5013829;28;20030;-87
2023/05/08 09:08:58;;;;;;;27.13;23.37;;;;;;;20.37;85.05;101963.28;5014548;28;20033;-87
2023/05/08 09:11:24;;;;;;;30.85;23.27;;;;;;;20.32;85.77;101964.84;5012867;28;20055;-87
2023/05/08 09:14:29;;;;;;;;;;;;;;;;;;;;;
2023/05/08 09:17:00;;;;;;;28.25;23.65;;;;;;;20.52;86.20;101966.22;5011968;28;20056;-87
2023/05/08 09:19:27;;;;;;;28.98;24.67;;;;;;;20.53;85.50;101970.66;4997269;28;20069;-87
2023/05/08 09:21:53;;;;;;;31.43;26.00;;;;;;;20.49;85.80;101959.31;4996901;28;20497;-87
2023/05/08 09:24:22;;;;;;;31.88;23.92;;;;;;;20.58;86.43;101961.63;5014410;28;20473;-87
2023/05/08 09:26:57;;;;;;;;;;;;;;;;;;;;;
2023/05/08 09:29:30;;;;;;;31.20;25.80;;;;;;;20.94;82.72;101965.69;5014224;28;20030;-87
2023/05/08 09:31:58;;;;;;;29.77;24.90;;;;;;;20.82;83.26;101962.25;4996026;28;20026;-87
2023/05/08 09:34:28;;;;;;;34.30;26.40;;;;;;;20.30;85.22;101961.53;5014205;28;20104;-87
2023/05/08 09:37:00;;;;;;;38.22;30.23;;;;;;;19.62;88.30;101963.47;4997145;28;20445;-86
2023/05/08 09:39:31;;;;;;;43.60;30.60;;;;;;;19.32;91.04;101967.34;5014093;28;20088;-87
2023/05/08 09:42:03;;;;;;;42.63;30.70;;;;;;;19.15;92.60;101966.47;5012655;28;20048;-87
2023/05/08 09:44:51;;;;;;;43.63;32.40;;;;;;;19.20;93.77;101974.84;5012619;28;20078;-87
2023/05/08 09:47:21;;;;;;;47.57;32.07;;;;;;;19.13;94.76;101965.88;5013756;28;20124;-87
2023/05/08 09:49:58;;;;;;;45.63;33.15;;;;;;;19.03;93.30;101970.13;5014099;28;20334;-87
2023/05/08 09:52:33;;;;;;;45.38;32.72;;;;;;;18.95;94.05;101965.00;5012688;28;20092;-87
2023/05/08 09:55:11;;;;;;;46.63;32.35;;;;;;;19.16;94.68;101963.47;4996367;28;20091;-87
2023/05/08 09:57:39;;;;;;;46.15;32.75;;;;;;;19.17;94.21;101965.16;5012473;28;20089;-87
2023/05/08 10:00:11;;;;;;;45.87;32.67;;;;;;;19.13;93.97;101972.22;5012597;28;20030;-87
2023/05/08 10:02:39;;;;;;;45.22;32.60;;;;;;;19.01;92.76;101977.75;5013724;28;20038;-87
2023/05/08 10:05:29;;;;;;;45.20;32.08;;;;;;;19.00;93.71;101975.25;5012441;28;20061;-87
2023/05/08 10:07:58;;;;;;;45.35;32.50;;;;;;;19.05;94.01;101969.88;5014087;28;20030;-87
2023/05/08 10:10:29;;;;;;;48.88;33.15;;;;;;;19.24;92.66;101973.25;5013068;28;20345;-87
2023/05/08 10:13:00;;;;;;;47.73;31.87;;;;;;;19.35;92.56;101968.78;5012254;28;20030;-86
2023/05/08 10:15:32;;;;;;;48.28;32.88;;;;;;;19.34;91.75;101978.09;5012175;28;20067;-81
2023/05/08 10:18:06;;;;;;;46.40;31.80;;;;;;;19.43;90.99;101974.72;5013654;28;20123;-81
2023/05/08 10:20:32;;;;;;;47.83;32.70;;;;;;;19.60;91.19;101980.22;5012171;28;20478;-82
2023/05/08 10:22:59;;;;;;;51.00;32.33;;;;;;;19.78;88.55;101978.34;5024726;28;20046;-81
2023/05/08 10:25:32;;;;;;;45.27;31.93;;;;;;;20.08;88.45;101980.78;5033329;28;20483;-80
2023/05/08 10:28:18;;;;;;;45.08;31.45;;;;;;;20.42;88.82;101974.38;5033312;28;20053;-81
2023/05/08 10:30:48;;;;;;;45.50;32.58;;;;;;;20.56;87.11;101980.34;5033149;28;20108;-81
2023/05/08 10:33:17;;;;;;;49.13;32.17;;;;;;;20.50;84.06;101976.69;5032583;28;20469;-88
2023/05/08 10:35:44;;;;;;;46.45;32.30;;;;;;;20.29;84.88;101973.63;5033355;28;20064;-88
2023/05/08 10:38:20;;;;;;;46.63;31.93;;;;;;;20.16;85.14;101971.25;5031789;28;20484;-88
2023/05/08 10:40:56;;;;;;;46.65;31.92;;;;;;;20.13;86.31;101969.00;5032871;28;20037;-87
2023/05/08 10:43:43;;;;;;;45.42;32.08;;;;;;;20.26;88.31;101970.56;5033672;28;20021;-87
2023/05/08 10:46:50;;;;;;;45.20;30.42;;;;;;;20.21;87.28;101974.09;5036522;28;20048;-90
2023/05/08 10:49:38;;;;;;;52.22;34.95;;;;;;;20.07;87.20;101979.09;5009797;28;20115;-87
2023/05/08 10:52:43;;;;;;;51.70;34.20;;;;;;;20.16;88.02;101963.78;5034652;28;20029;-87
2023/05/08 10:55:28;;;;;;;57.40;36.80;;;;;;;20.27;87.55;101961.19;5036630;28;20072;-88
2023/05/08 10:58:08;;;;;;;52.03;35.45;;;;;;;20.59;85.16;101966.03;5035649;28;20041;-88
2023/05/08 11:00:55;;;;;;;50.22;34.95;;;;;;;20.44;85.53;101963.91;5003252;28;20083;-87
2023/05/08 11:03:31;;;;;;;58.45;36.47;;;;;;;20.70;83.62;101965.13;5035738;28;20039;-88
2023/05/08 11:05:57;;;;;;;52.67;34.17;;;;;;;21.26;81.84;101962.16;5035772;28;20029;-87
2023/05/08 11:08:33;;;;;;;50.75;34.88;;;;;;;22.16;79.39;101956.03;5036564;28;20061;-87
2023/05/08 11:11:03;;;;;;;51.08;34.05;;;;;;;23.02;73.47;101966.94;5035334;28;20083;-87
2023/05/08 11:13:37;;;;;;;50.20;33.97;;;;;;;23.09;71.51;101959.19;5036881;28;20105;-88
2023/05/08 11:16:14;;;;;;;49.78;34.00;;;;;;;22.79;71.45;101955.25;5036569;28;20026;-88
2023/05/08 11:19:17;;;;;;;48.73;33.67;;;;;;;22.57;75.66;101945.22;5036204;28;20026;-88
2023/05/08 11:22:11;;;;;;;47.05;33.05;;;;;;;22.52;76.36;101947.94;5035052;28;20128;-88
2023/05/08 11:24:40;;;;;;;50.75;33.42;;;;;;;22.43;72.60;101941.28;5036821;28;20072;-87
2023/05/08 11:27:06;;;;;;;45.17;32.13;;;;;;;22.67;72.00;101938.88;5035058;28;20025;-87